sensor_id;sensor_type;location;lat;lon;timestamp;P1;durP1;ratioP1;P2;durP2;ratioP2
84084;SDS011;74175;41.730;44.734;2024-02-14T00:00:07;6.32;;;2.28;;
84084;SDS011;74175;41.730;44.734;2024-02-14T00:02:45;7.97;;;2.35;;
84084;SDS011;74175;41.730;44.734;2024-02-14T00:05:15;5.90;;;2.00;;
84084;SDS011;74175;41.730;44.734;2024-02-14T00:07:41;6.35;;;2.10;;
84084;SDS011;74175;41.730;44.734;2024-02-14T00:10:08;6.53;;;1.67;;
84084;SDS011;74175;41.730;44.734;2024-02-14T00:12:41;5.57;;;1.77;;
84084;SDS011;74175;41.730;44.734;2024-02-14T00:15:08;4.97;;;1.60;;
84084;SDS011;74175;41.730;44.734;2024-02-14T00:17:35;4.90;;;1.60;;
84084;SDS011;74175;41.730;44.734;2024-02-14T00:20:01;5.57;;;1.63;;
84084;SDS011;74175;41.730;44.734;2024-02-14T00:22:31;7.00;;;2.15;;
84084;SDS011;74175;41.730;44.734;2024-02-14T00:24:58;7.25;;;2.40;;
84084;SDS011;74175;41.730;44.734;2024-02-14T00:27:23;6.03;;;1.80;;
84084;SDS011;74175;41.730;44.734;2024-02-14T00:29:52;5.67;;;1.73;;
84084;SDS011;74175;41.730;44.734;2024-02-14T00:32:19;6.30;;;2.00;;
84084;SDS011;74175;41.730;44.734;2024-02-14T00:34:51;8.65;;;3.13;;
84084;SDS011;74175;41.730;44.734;2024-02-14T00:37:19;9.43;;;2.95;;
84084;SDS011;74175;41.730;44.734;2024-02-14T00:39:45;7.22;;;2.80;;
84084;SDS011;74175;41.730;44.734;2024-02-14T00:42:14;8.70;;;2.23;;
84084;SDS011;74175;41.730;44.734;2024-02-14T00:44:40;6.93;;;2.28;;
84084;SDS011;74175;41.730;44.734;2024-02-14T00:47:06;11.23;;;2.88;;
84084;SDS011;74175;41.730;44.734;2024-02-14T00:49:35;9.02;;;2.33;;
84084;SDS011;74175;41.730;44.734;2024-02-14T00:52:01;8.82;;;2.70;;
84084;SDS011;74175;41.730;44.734;2024-02-14T00:54:28;5.57;;;2.17;;
84084;SDS011;74175;41.730;44.734;2024-02-14T00:56:54;7.72;;;2.60;;
84084;SDS011;74175;41.730;44.734;2024-02-14T00:59:20;11.95;;;3.80;;
84084;SDS011;74175;41.730;44.734;2024-02-14T01:01:46;8.50;;;3.03;;
84084;SDS011;74175;41.730;44.734;2024-02-14T01:04:12;7.30;;;2.50;;
84084;SDS011;74175;41.730;44.734;2024-02-14T01:06:38;6.47;;;2.30;;
84084;SDS011;74175;41.730;44.734;2024-02-14T01:09:04;8.02;;;2.80;;
84084;SDS011;74175;41.730;44.734;2024-02-14T01:11:30;6.78;;;2.53;;
84084;SDS011;74175;41.730;44.734;2024-02-14T01:13:57;8.13;;;2.47;;
84084;SDS011;74175;41.730;44.734;2024-02-14T01:16:24;7.70;;;2.78;;
84084;SDS011;74175;41.730;44.734;2024-02-14T01:18:51;7.50;;;2.37;;
84084;SDS011;74175;41.730;44.734;2024-02-14T01:21:17;6.65;;;2.33;;
84084;SDS011;74175;41.730;44.734;2024-02-14T01:23:43;6.22;;;2.15;;
84084;SDS011;74175;41.730;44.734;2024-02-14T01:26:09;5.97;;;2.08;;
84084;SDS011;74175;41.730;44.734;2024-02-14T01:28:35;6.47;;;2.65;;
84084;SDS011;74175;41.730;44.734;2024-02-14T01:31:02;6.73;;;2.40;;
84084;SDS011;74175;41.730;44.734;2024-02-14T01:33:28;7.30;;;2.53;;
84084;SDS011;74175;41.730;44.734;2024-02-14T01:35:56;6.85;;;2.22;;
84084;SDS011;74175;41.730;44.734;2024-02-14T01:38:23;6.65;;;2.17;;
84084;SDS011;74175;41.730;44.734;2024-02-14T01:40:49;8.35;;;2.72;;
84084;SDS011;74175;41.730;44.734;2024-02-14T01:43:15;5.03;;;2.13;;
84084;SDS011;74175;41.730;44.734;2024-02-14T01:45:41;5.22;;;1.75;;
84084;SDS011;74175;41.730;44.734;2024-02-14T01:48:13;4.32;;;1.40;;
84084;SDS011;74175;41.730;44.734;2024-02-14T01:50:44;4.75;;;1.48;;
84084;SDS011;74175;41.730;44.734;2024-02-14T01:53:12;4.68;;;1.30;;
84084;SDS011;74175;41.730;44.734;2024-02-14T01:55:38;4.87;;;1.50;;
84084;SDS011;74175;41.730;44.734;2024-02-14T01:58:04;5.07;;;1.80;;
84084;SDS011;74175;41.730;44.734;2024-02-14T02:00:31;4.63;;;1.42;;
84084;SDS011;74175;41.730;44.734;2024-02-14T02:03:02;6.90;;;2.50;;
84084;SDS011;74175;41.730;44.734;2024-02-14T02:05:28;6.40;;;2.22;;
84084;SDS011;74175;41.730;44.734;2024-02-14T02:07:54;6.87;;;1.97;;
84084;SDS011;74175;41.730;44.734;2024-02-14T02:10:20;5.57;;;2.15;;
84084;SDS011;74175;41.730;44.734;2024-02-14T02:13:08;7.00;;;2.40;;
84084;SDS011;74175;41.730;44.734;2024-02-14T02:15:54;5.72;;;2.00;;
84084;SDS011;74175;41.730;44.734;2024-02-14T02:18:41;6.65;;;2.17;;
84084;SDS011;74175;41.730;44.734;2024-02-14T02:21:30;6.10;;;1.77;;
84084;SDS011;74175;41.730;44.734;2024-02-14T02:23:56;8.55;;;2.58;;
84084;SDS011;74175;41.730;44.734;2024-02-14T02:26:22;6.88;;;2.40;;
84084;SDS011;74175;41.730;44.734;2024-02-14T02:29:06;8.00;;;3.42;;
84084;SDS011;74175;41.730;44.734;2024-02-14T02:31:32;6.65;;;2.40;;
84084;SDS011;74175;41.730;44.734;2024-02-14T02:33:59;5.80;;;2.33;;
84084;SDS011;74175;41.730;44.734;2024-02-14T02:36:25;8.02;;;2.22;;
84084;SDS011;74175;41.730;44.734;2024-02-14T02:39:15;6.80;;;2.78;;
84084;SDS011;74175;41.730;44.734;2024-02-14T02:42:02;10.15;;;4.10;;
84084;SDS011;74175;41.730;44.734;2024-02-14T02:44:54;9.32;;;3.08;;
84084;SDS011;74175;41.730;44.734;2024-02-14T02:47:46;7.43;;;2.07;;
84084;SDS011;74175;41.730;44.734;2024-02-14T02:50:33;6.95;;;2.03;;
84084;SDS011;74175;41.730;44.734;2024-02-14T02:53:19;11.95;;;3.17;;
84084;SDS011;74175;41.730;44.734;2024-02-14T02:56:05;10.15;;;3.40;;
84084;SDS011;74175;41.730;44.734;2024-02-14T02:58:32;8.98;;;2.60;;
84084;SDS011;74175;41.730;44.734;2024-02-14T03:00:59;7.37;;;2.63;;
84084;SDS011;74175;41.730;44.734;2024-02-14T03:03:45;9.27;;;2.90;;
84084;SDS011;74175;41.730;44.734;2024-02-14T03:06:26;7.93;;;2.70;;
84084;SDS011;74175;41.730;44.734;2024-02-14T03:09:08;7.32;;;2.70;;
84084;SDS011;74175;41.730;44.734;2024-02-14T03:11:54;12.45;;;3.83;;
84084;SDS011;74175;41.730;44.734;2024-02-14T03:14:42;10.33;;;2.80;;
84084;SDS011;74175;41.730;44.734;2024-02-14T03:17:29;7.55;;;2.42;;
84084;SDS011;74175;41.730;44.734;2024-02-14T03:19:55;7.60;;;2.63;;
84084;SDS011;74175;41.730;44.734;2024-02-14T03:22:22;11.55;;;3.80;;
84084;SDS011;74175;41.730;44.734;2024-02-14T03:24:48;7.38;;;2.55;;
84084;SDS011;74175;41.730;44.734;2024-02-14T03:27:14;7.10;;;2.53;;
84084;SDS011;74175;41.730;44.734;2024-02-14T03:29:42;5.97;;;2.10;;
84084;SDS011;74175;41.730;44.734;2024-02-14T03:32:09;7.78;;;2.80;;
84084;SDS011;74175;41.730;44.734;2024-02-14T03:34:36;6.80;;;2.20;;
84084;SDS011;74175;41.730;44.734;2024-02-14T03:37:02;9.43;;;3.17;;
84084;SDS011;74175;41.730;44.734;2024-02-14T03:39:32;8.67;;;3.00;;
84084;SDS011;74175;41.730;44.734;2024-02-14T03:41:59;9.30;;;2.60;;
84084;SDS011;74175;41.730;44.734;2024-02-14T03:44:28;7.60;;;2.63;;
84084;SDS011;74175;41.730;44.734;2024-02-14T03:46:54;8.35;;;2.88;;
84084;SDS011;74175;41.730;44.734;2024-02-14T03:49:21;10.23;;;3.13;;
84084;SDS011;74175;41.730;44.734;2024-02-14T03:51:47;7.47;;;2.73;;
84084;SDS011;74175;41.730;44.734;2024-02-14T03:54:15;10.02;;;2.45;;
84084;SDS011;74175;41.730;44.734;2024-02-14T03:56:41;15.90;;;4.50;;
84084;SDS011;74175;41.730;44.734;2024-02-14T03:59:07;11.45;;;3.60;;
84084;SDS011;74175;41.730;44.734;2024-02-14T04:01:33;7.55;;;2.60;;
84084;SDS011;74175;41.730;44.734;2024-02-14T04:04:01;10.43;;;3.70;;
84084;SDS011;74175;41.730;44.734;2024-02-14T04:06:27;12.27;;;3.42;;
84084;SDS011;74175;41.730;44.734;2024-02-14T04:08:57;11.05;;;4.05;;
84084;SDS011;74175;41.730;44.734;2024-02-14T04:11:24;12.50;;;4.00;;
84084;SDS011;74175;41.730;44.734;2024-02-14T04:13:50;11.02;;;3.88;;
84084;SDS011;74175;41.730;44.734;2024-02-14T04:16:18;10.37;;;3.07;;
84084;SDS011;74175;41.730;44.734;2024-02-14T04:18:51;8.93;;;2.78;;
84084;SDS011;74175;41.730;44.734;2024-02-14T04:21:19;7.10;;;2.40;;
84084;SDS011;74175;41.730;44.734;2024-02-14T04:23:46;9.55;;;2.47;;
84084;SDS011;74175;41.730;44.734;2024-02-14T04:26:18;5.53;;;1.50;;
84084;SDS011;74175;41.730;44.734;2024-02-14T04:31:16;10.45;;;3.00;;
84084;SDS011;74175;41.730;44.734;2024-02-14T04:33:51;9.48;;;2.90;;
84084;SDS011;74175;41.730;44.734;2024-02-14T04:36:19;9.23;;;2.85;;
84084;SDS011;74175;41.730;44.734;2024-02-14T04:38:46;12.20;;;3.60;;
84084;SDS011;74175;41.730;44.734;2024-02-14T04:41:13;6.22;;;2.30;;
84084;SDS011;74175;41.730;44.734;2024-02-14T04:43:40;17.85;;;3.95;;
84084;SDS011;74175;41.730;44.734;2024-02-14T04:46:06;8.63;;;2.57;;
84084;SDS011;74175;41.730;44.734;2024-02-14T04:48:34;13.17;;;3.77;;
84084;SDS011;74175;41.730;44.734;2024-02-14T04:51:02;11.15;;;3.60;;
84084;SDS011;74175;41.730;44.734;2024-02-14T04:53:30;12.43;;;4.97;;
84084;SDS011;74175;41.730;44.734;2024-02-14T04:55:57;13.98;;;4.40;;
84084;SDS011;74175;41.730;44.734;2024-02-14T04:58:23;11.68;;;3.92;;
84084;SDS011;74175;41.730;44.734;2024-02-14T05:00:49;11.03;;;4.20;;
84084;SDS011;74175;41.730;44.734;2024-02-14T05:03:15;9.07;;;3.50;;
84084;SDS011;74175;41.730;44.734;2024-02-14T05:05:43;7.97;;;2.88;;
84084;SDS011;74175;41.730;44.734;2024-02-14T05:08:09;10.93;;;3.67;;
84084;SDS011;74175;41.730;44.734;2024-02-14T05:10:35;14.10;;;4.15;;
84084;SDS011;74175;41.730;44.734;2024-02-14T05:13:02;10.07;;;3.77;;
84084;SDS011;74175;41.730;44.734;2024-02-14T05:15:28;9.32;;;3.47;;
84084;SDS011;74175;41.730;44.734;2024-02-14T05:17:54;8.95;;;3.50;;
84084;SDS011;74175;41.730;44.734;2024-02-14T05:20:21;13.07;;;5.13;;
84084;SDS011;74175;41.730;44.734;2024-02-14T05:22:48;14.68;;;3.80;;
84084;SDS011;74175;41.730;44.734;2024-02-14T05:25:14;15.63;;;4.20;;
84084;SDS011;74175;41.730;44.734;2024-02-14T05:27:51;17.80;;;5.72;;
84084;SDS011;74175;41.730;44.734;2024-02-14T05:30:17;15.98;;;5.47;;
84084;SDS011;74175;41.730;44.734;2024-02-14T05:32:49;15.43;;;4.60;;
84084;SDS011;74175;41.730;44.734;2024-02-14T05:35:18;13.00;;;4.88;;
84084;SDS011;74175;41.730;44.734;2024-02-14T05:37:44;12.80;;;5.43;;
84084;SDS011;74175;41.730;44.734;2024-02-14T05:40:24;11.30;;;4.57;;
84084;SDS011;74175;41.730;44.734;2024-02-14T05:42:50;13.20;;;4.45;;
84084;SDS011;74175;41.730;44.734;2024-02-14T05:45:16;12.65;;;5.13;;
84084;SDS011;74175;41.730;44.734;2024-02-14T05:47:43;13.05;;;4.97;;
84084;SDS011;74175;41.730;44.734;2024-02-14T05:50:09;12.60;;;4.63;;
84084;SDS011;74175;41.730;44.734;2024-02-14T05:52:37;18.98;;;6.57;;
84084;SDS011;74175;41.730;44.734;2024-02-14T05:55:04;18.43;;;5.37;;
84084;SDS011;74175;41.730;44.734;2024-02-14T05:57:33;10.38;;;4.38;;
84084;SDS011;74175;41.730;44.734;2024-02-14T05:59:59;13.77;;;5.05;;
84084;SDS011;74175;41.730;44.734;2024-02-14T06:02:25;19.90;;;6.20;;
84084;SDS011;74175;41.730;44.734;2024-02-14T06:04:51;18.75;;;5.82;;
84084;SDS011;74175;41.730;44.734;2024-02-14T06:07:17;13.48;;;4.95;;
84084;SDS011;74175;41.730;44.734;2024-02-14T06:09:44;14.83;;;5.90;;
84084;SDS011;74175;41.730;44.734;2024-02-14T06:12:11;13.90;;;5.68;;
84084;SDS011;74175;41.730;44.734;2024-02-14T06:14:37;13.23;;;5.53;;
84084;SDS011;74175;41.730;44.734;2024-02-14T06:17:03;14.80;;;5.70;;
84084;SDS011;74175;41.730;44.734;2024-02-14T06:19:29;12.10;;;5.30;;
84084;SDS011;74175;41.730;44.734;2024-02-14T06:21:56;13.40;;;5.23;;
84084;SDS011;74175;41.730;44.734;2024-02-14T06:24:22;15.02;;;5.40;;
84084;SDS011;74175;41.730;44.734;2024-02-14T06:26:49;16.70;;;6.43;;
84084;SDS011;74175;41.730;44.734;2024-02-14T06:29:15;14.98;;;6.35;;
84084;SDS011;74175;41.730;44.734;2024-02-14T06:31:41;17.13;;;8.30;;
84084;SDS011;74175;41.730;44.734;2024-02-14T06:34:08;15.50;;;6.23;;
84084;SDS011;74175;41.730;44.734;2024-02-14T06:36:36;16.00;;;6.68;;
84084;SDS011;74175;41.730;44.734;2024-02-14T06:39:02;17.20;;;6.57;;
84084;SDS011;74175;41.730;44.734;2024-02-14T06:41:28;18.30;;;7.50;;
84084;SDS011;74175;41.730;44.734;2024-02-14T06:43:55;18.38;;;7.93;;
84084;SDS011;74175;41.730;44.734;2024-02-14T06:46:21;14.33;;;7.20;;
84084;SDS011;74175;41.730;44.734;2024-02-14T06:48:47;15.45;;;6.72;;
84084;SDS011;74175;41.730;44.734;2024-02-14T06:51:13;17.70;;;7.68;;
84084;SDS011;74175;41.730;44.734;2024-02-14T06:53:39;14.82;;;6.03;;
84084;SDS011;74175;41.730;44.734;2024-02-14T06:56:05;22.83;;;10.50;;
84084;SDS011;74175;41.730;44.734;2024-02-14T06:58:32;15.40;;;7.57;;
84084;SDS011;74175;41.730;44.734;2024-02-14T07:00:58;15.02;;;7.43;;
84084;SDS011;74175;41.730;44.734;2024-02-14T07:03:25;16.55;;;7.22;;
84084;SDS011;74175;41.730;44.734;2024-02-14T07:05:51;27.10;;;10.65;;
84084;SDS011;74175;41.730;44.734;2024-02-14T07:08:17;15.73;;;7.15;;
84084;SDS011;74175;41.730;44.734;2024-02-14T07:10:44;16.07;;;7.90;;
84084;SDS011;74175;41.730;44.734;2024-02-14T07:13:10;18.48;;;7.03;;
84084;SDS011;74175;41.730;44.734;2024-02-14T07:15:36;27.08;;;12.70;;
84084;SDS011;74175;41.730;44.734;2024-02-14T07:18:02;20.77;;;10.55;;
84084;SDS011;74175;41.730;44.734;2024-02-14T07:20:29;18.13;;;8.95;;
84084;SDS011;74175;41.730;44.734;2024-02-14T07:22:55;22.57;;;9.43;;
84084;SDS011;74175;41.730;44.734;2024-02-14T07:25:22;17.77;;;8.57;;
84084;SDS011;74175;41.730;44.734;2024-02-14T07:27:48;21.13;;;8.82;;
84084;SDS011;74175;41.730;44.734;2024-02-14T07:30:17;20.88;;;8.23;;
84084;SDS011;74175;41.730;44.734;2024-02-14T07:32:44;16.55;;;8.43;;
84084;SDS011;74175;41.730;44.734;2024-02-14T07:35:10;19.00;;;8.77;;
84084;SDS011;74175;41.730;44.734;2024-02-14T07:37:39;21.10;;;9.20;;
84084;SDS011;74175;41.730;44.734;2024-02-14T07:40:06;19.15;;;8.43;;
84084;SDS011;74175;41.730;44.734;2024-02-14T07:42:53;16.98;;;7.70;;
84084;SDS011;74175;41.730;44.734;2024-02-14T07:45:19;14.63;;;7.28;;
84084;SDS011;74175;41.730;44.734;2024-02-14T07:47:45;14.90;;;6.73;;
84084;SDS011;74175;41.730;44.734;2024-02-14T07:50:11;25.08;;;9.95;;
84084;SDS011;74175;41.730;44.734;2024-02-14T07:52:41;21.15;;;9.30;;
84084;SDS011;74175;41.730;44.734;2024-02-14T07:55:08;28.13;;;12.45;;
84084;SDS011;74175;41.730;44.734;2024-02-14T07:57:38;22.20;;;10.68;;
84084;SDS011;74175;41.730;44.734;2024-02-14T08:00:08;25.83;;;11.30;;
84084;SDS011;74175;41.730;44.734;2024-02-14T08:02:35;17.38;;;9.07;;
84084;SDS011;74175;41.730;44.734;2024-02-14T08:05:02;14.32;;;7.07;;
84084;SDS011;74175;41.730;44.734;2024-02-14T08:07:32;20.55;;;10.23;;
84084;SDS011;74175;41.730;44.734;2024-02-14T08:09:58;19.38;;;10.27;;
84084;SDS011;74175;41.730;44.734;2024-02-14T08:12:24;14.73;;;7.80;;
84084;SDS011;74175;41.730;44.734;2024-02-14T08:14:51;20.90;;;9.48;;
84084;SDS011;74175;41.730;44.734;2024-02-14T08:17:18;16.63;;;7.90;;
84084;SDS011;74175;41.730;44.734;2024-02-14T08:19:44;20.63;;;8.70;;
84084;SDS011;74175;41.730;44.734;2024-02-14T08:22:10;21.25;;;10.20;;
84084;SDS011;74175;41.730;44.734;2024-02-14T08:24:37;19.40;;;9.43;;
84084;SDS011;74175;41.730;44.734;2024-02-14T08:27:03;19.27;;;8.68;;
84084;SDS011;74175;41.730;44.734;2024-02-14T08:29:33;18.33;;;8.45;;
84084;SDS011;74175;41.730;44.734;2024-02-14T08:31:59;17.85;;;8.93;;
84084;SDS011;74175;41.730;44.734;2024-02-14T08:34:29;19.27;;;8.18;;
84084;SDS011;74175;41.730;44.734;2024-02-14T08:36:55;16.13;;;8.43;;
84084;SDS011;74175;41.730;44.734;2024-02-14T08:39:21;15.73;;;8.20;;
84084;SDS011;74175;41.730;44.734;2024-02-14T08:41:50;19.55;;;8.00;;
84084;SDS011;74175;41.730;44.734;2024-02-14T08:44:17;18.92;;;9.25;;
84084;SDS011;74175;41.730;44.734;2024-02-14T08:46:43;13.77;;;6.43;;
84084;SDS011;74175;41.730;44.734;2024-02-14T08:49:13;13.07;;;5.70;;
84084;SDS011;74175;41.730;44.734;2024-02-14T08:51:40;12.48;;;5.93;;
84084;SDS011;74175;41.730;44.734;2024-02-14T08:54:07;18.23;;;7.63;;
84084;SDS011;74175;41.730;44.734;2024-02-14T08:56:34;15.77;;;6.50;;
84084;SDS011;74175;41.730;44.734;2024-02-14T08:59:00;16.77;;;8.30;;
84084;SDS011;74175;41.730;44.734;2024-02-14T09:01:28;21.87;;;9.67;;
84084;SDS011;74175;41.730;44.734;2024-02-14T09:03:55;20.30;;;9.77;;
84084;SDS011;74175;41.730;44.734;2024-02-14T09:06:21;21.15;;;10.30;;
84084;SDS011;74175;41.730;44.734;2024-02-14T09:08:47;21.00;;;8.23;;
84084;SDS011;74175;41.730;44.734;2024-02-14T09:11:14;14.50;;;7.40;;
84084;SDS011;74175;41.730;44.734;2024-02-14T09:13:40;11.97;;;6.07;;
84084;SDS011;74175;41.730;44.734;2024-02-14T09:16:07;14.20;;;6.45;;
84084;SDS011;74175;41.730;44.734;2024-02-14T09:18:34;16.75;;;8.35;;
84084;SDS011;74175;41.730;44.734;2024-02-14T09:21:01;20.45;;;9.18;;
84084;SDS011;74175;41.730;44.734;2024-02-14T09:23:29;17.70;;;8.57;;
84084;SDS011;74175;41.730;44.734;2024-02-14T09:25:56;23.13;;;10.07;;
84084;SDS011;74175;41.730;44.734;2024-02-14T09:28:23;23.75;;;10.40;;
84084;SDS011;74175;41.730;44.734;2024-02-14T09:30:49;20.35;;;8.75;;
84084;SDS011;74175;41.730;44.734;2024-02-14T09:33:15;21.73;;;8.65;;
84084;SDS011;74175;41.730;44.734;2024-02-14T09:35:42;24.58;;;11.43;;
84084;SDS011;74175;41.730;44.734;2024-02-14T09:38:13;27.30;;;10.43;;
84084;SDS011;74175;41.730;44.734;2024-02-14T09:40:40;21.92;;;10.98;;
84084;SDS011;74175;41.730;44.734;2024-02-14T09:43:10;18.33;;;8.13;;
84084;SDS011;74175;41.730;44.734;2024-02-14T09:45:41;22.27;;;11.35;;
84084;SDS011;74175;41.730;44.734;2024-02-14T09:48:08;23.92;;;9.52;;
84084;SDS011;74175;41.730;44.734;2024-02-14T09:50:36;19.87;;;8.97;;
84084;SDS011;74175;41.730;44.734;2024-02-14T09:53:04;18.63;;;8.63;;
84084;SDS011;74175;41.730;44.734;2024-02-14T09:55:30;15.10;;;7.90;;
84084;SDS011;74175;41.730;44.734;2024-02-14T09:57:56;16.70;;;9.38;;
84084;SDS011;74175;41.730;44.734;2024-02-14T10:00:23;21.45;;;10.40;;
84084;SDS011;74175;41.730;44.734;2024-02-14T10:02:50;19.30;;;9.70;;
84084;SDS011;74175;41.730;44.734;2024-02-14T10:05:17;20.65;;;9.60;;
84084;SDS011;74175;41.730;44.734;2024-02-14T10:07:43;22.13;;;10.95;;
84084;SDS011;74175;41.730;44.734;2024-02-14T10:10:10;13.65;;;7.35;;
84084;SDS011;74175;41.730;44.734;2024-02-14T10:12:37;24.10;;;11.07;;
84084;SDS011;74175;41.730;44.734;2024-02-14T10:15:05;16.50;;;8.40;;
84084;SDS011;74175;41.730;44.734;2024-02-14T10:17:35;20.77;;;9.83;;
84084;SDS011;74175;41.730;44.734;2024-02-14T10:20:02;20.80;;;9.10;;
84084;SDS011;74175;41.730;44.734;2024-02-14T10:22:35;24.13;;;10.10;;
84084;SDS011;74175;41.730;44.734;2024-02-14T10:25:02;18.77;;;9.25;;
84084;SDS011;74175;41.730;44.734;2024-02-14T10:27:30;19.05;;;8.27;;
84084;SDS011;74175;41.730;44.734;2024-02-14T10:29:59;16.88;;;9.60;;
84084;SDS011;74175;41.730;44.734;2024-02-14T10:32:27;12.20;;;6.23;;
84084;SDS011;74175;41.730;44.734;2024-02-14T10:34:54;12.93;;;6.18;;
84084;SDS011;74175;41.730;44.734;2024-02-14T10:37:20;17.77;;;8.88;;
84084;SDS011;74175;41.730;44.734;2024-02-14T10:39:47;18.42;;;9.43;;
84084;SDS011;74175;41.730;44.734;2024-02-14T10:42:14;17.73;;;8.63;;
84084;SDS011;74175;41.730;44.734;2024-02-14T10:44:41;15.68;;;6.78;;
84084;SDS011;74175;41.730;44.734;2024-02-14T10:47:09;15.65;;;6.90;;
84084;SDS011;74175;41.730;44.734;2024-02-14T10:49:37;14.32;;;7.25;;
84084;SDS011;74175;41.730;44.734;2024-02-14T10:52:05;16.15;;;8.52;;
84084;SDS011;74175;41.730;44.734;2024-02-14T10:54:33;14.93;;;7.10;;
84084;SDS011;74175;41.730;44.734;2024-02-14T10:57:04;13.85;;;6.82;;
84084;SDS011;74175;41.730;44.734;2024-02-14T10:59:32;12.63;;;6.68;;
84084;SDS011;74175;41.730;44.734;2024-02-14T11:01:59;15.10;;;7.20;;
84084;SDS011;74175;41.730;44.734;2024-02-14T11:04:26;15.93;;;8.13;;
84084;SDS011;74175;41.730;44.734;2024-02-14T11:06:52;12.60;;;6.00;;
84084;SDS011;74175;41.730;44.734;2024-02-14T11:09:31;13.07;;;6.88;;
84084;SDS011;74175;41.730;44.734;2024-02-14T11:12:01;13.20;;;7.15;;
84084;SDS011;74175;41.730;44.734;2024-02-14T11:14:31;14.18;;;7.07;;
84084;SDS011;74175;41.730;44.734;2024-02-14T11:17:09;13.43;;;6.65;;
84084;SDS011;74175;41.730;44.734;2024-02-14T11:19:35;13.70;;;6.50;;
84084;SDS011;74175;41.730;44.734;2024-02-14T11:22:18;12.30;;;5.68;;
84084;SDS011;74175;41.730;44.734;2024-02-14T11:24:45;19.60;;;7.90;;
84084;SDS011;74175;41.730;44.734;2024-02-14T11:27:12;14.05;;;7.35;;
84084;SDS011;74175;41.730;44.734;2024-02-14T11:29:50;13.40;;;6.38;;
84084;SDS011;74175;41.730;44.734;2024-02-14T11:32:17;14.47;;;6.13;;
84084;SDS011;74175;41.730;44.734;2024-02-14T11:34:44;20.00;;;8.15;;
84084;SDS011;74175;41.730;44.734;2024-02-14T11:37:19;14.80;;;6.70;;
84084;SDS011;74175;41.730;44.734;2024-02-14T11:39:46;11.45;;;5.60;;
84084;SDS011;74175;41.730;44.734;2024-02-14T11:42:12;15.30;;;6.85;;
84084;SDS011;74175;41.730;44.734;2024-02-14T11:44:40;14.68;;;7.55;;
84084;SDS011;74175;41.730;44.734;2024-02-14T11:47:09;15.50;;;6.40;;
84084;SDS011;74175;41.730;44.734;2024-02-14T11:49:36;13.35;;;6.10;;
84084;SDS011;74175;41.730;44.734;2024-02-14T11:52:04;13.93;;;5.68;;
84084;SDS011;74175;41.730;44.734;2024-02-14T11:54:31;10.95;;;4.70;;
84084;SDS011;74175;41.730;44.734;2024-02-14T11:56:57;13.98;;;5.97;;
84084;SDS011;74175;41.730;44.734;2024-02-14T11:59:23;14.47;;;6.20;;
84084;SDS011;74175;41.730;44.734;2024-02-14T12:01:50;12.93;;;6.55;;
84084;SDS011;74175;41.730;44.734;2024-02-14T12:04:17;11.85;;;5.68;;
84084;SDS011;74175;41.730;44.734;2024-02-14T12:06:43;19.15;;;7.85;;
84084;SDS011;74175;41.730;44.734;2024-02-14T12:09:09;13.23;;;6.45;;
84084;SDS011;74175;41.730;44.734;2024-02-14T12:11:44;11.07;;;5.30;;
84084;SDS011;74175;41.730;44.734;2024-02-14T12:14:11;10.00;;;4.70;;
84084;SDS011;74175;41.730;44.734;2024-02-14T12:16:38;9.77;;;4.00;;
84084;SDS011;74175;41.730;44.734;2024-02-14T12:19:08;11.23;;;5.33;;
84084;SDS011;74175;41.730;44.734;2024-02-14T12:21:44;13.48;;;6.15;;
84084;SDS011;74175;41.730;44.734;2024-02-14T12:24:11;10.88;;;5.28;;
84084;SDS011;74175;41.730;44.734;2024-02-14T12:26:40;12.90;;;5.10;;
84084;SDS011;74175;41.730;44.734;2024-02-14T12:29:07;10.82;;;4.40;;
84084;SDS011;74175;41.730;44.734;2024-02-14T12:31:34;11.93;;;5.00;;
84084;SDS011;74175;41.730;44.734;2024-02-14T12:34:02;7.88;;;4.00;;
84084;SDS011;74175;41.730;44.734;2024-02-14T12:36:34;9.98;;;4.30;;
84084;SDS011;74175;41.730;44.734;2024-02-14T12:39:01;8.40;;;3.85;;
84084;SDS011;74175;41.730;44.734;2024-02-14T12:41:28;7.43;;;3.38;;
84084;SDS011;74175;41.730;44.734;2024-02-14T12:43:55;6.73;;;2.83;;
84084;SDS011;74175;41.730;44.734;2024-02-14T12:46:22;7.43;;;2.90;;
84084;SDS011;74175;41.730;44.734;2024-02-14T12:48:48;6.22;;;2.90;;
84084;SDS011;74175;41.730;44.734;2024-02-14T12:51:15;5.18;;;2.35;;
84084;SDS011;74175;41.730;44.734;2024-02-14T12:53:41;5.55;;;2.60;;
84084;SDS011;74175;41.730;44.734;2024-02-14T12:56:07;5.40;;;2.27;;
84084;SDS011;74175;41.730;44.734;2024-02-14T12:58:33;4.45;;;2.33;;
84084;SDS011;74175;41.730;44.734;2024-02-14T13:01:00;5.63;;;2.40;;
84084;SDS011;74175;41.730;44.734;2024-02-14T13:03:27;6.20;;;2.65;;
84084;SDS011;74175;41.730;44.734;2024-02-14T13:05:54;13.40;;;5.05;;
84084;SDS011;74175;41.730;44.734;2024-02-14T13:08:21;10.47;;;4.37;;
84084;SDS011;74175;41.730;44.734;2024-02-14T13:10:50;12.20;;;4.07;;
84084;SDS011;74175;41.730;44.734;2024-02-14T13:13:16;13.32;;;3.58;;
84084;SDS011;74175;41.730;44.734;2024-02-14T13:15:43;13.65;;;4.00;;
84084;SDS011;74175;41.730;44.734;2024-02-14T13:18:10;6.90;;;2.85;;
84084;SDS011;74175;41.730;44.734;2024-02-14T13:20:37;8.93;;;3.60;;
84084;SDS011;74175;41.730;44.734;2024-02-14T13:23:04;8.57;;;3.60;;
84084;SDS011;74175;41.730;44.734;2024-02-14T13:25:33;6.87;;;3.03;;
84084;SDS011;74175;41.730;44.734;2024-02-14T13:28:00;8.57;;;3.47;;
84084;SDS011;74175;41.730;44.734;2024-02-14T13:30:29;10.93;;;3.65;;
84084;SDS011;74175;41.730;44.734;2024-02-14T13:32:56;9.75;;;4.70;;
84084;SDS011;74175;41.730;44.734;2024-02-14T13:35:22;15.98;;;7.35;;
84084;SDS011;74175;41.730;44.734;2024-02-14T13:37:49;12.77;;;5.05;;
84084;SDS011;74175;41.730;44.734;2024-02-14T13:40:15;11.82;;;4.88;;
84084;SDS011;74175;41.730;44.734;2024-02-14T13:42:41;14.15;;;5.93;;
84084;SDS011;74175;41.730;44.734;2024-02-14T13:45:07;8.67;;;3.70;;
84084;SDS011;74175;41.730;44.734;2024-02-14T13:47:36;11.10;;;4.60;;
84084;SDS011;74175;41.730;44.734;2024-02-14T13:50:06;13.15;;;4.45;;
84084;SDS011;74175;41.730;44.734;2024-02-14T13:52:33;15.23;;;4.65;;
84084;SDS011;74175;41.730;44.734;2024-02-14T13:55:03;10.95;;;4.22;;
84084;SDS011;74175;41.730;44.734;2024-02-14T13:57:36;8.37;;;4.03;;
84084;SDS011;74175;41.730;44.734;2024-02-14T14:00:07;8.25;;;3.58;;
84084;SDS011;74175;41.730;44.734;2024-02-14T14:02:40;12.20;;;3.83;;
84084;SDS011;74175;41.730;44.734;2024-02-14T14:05:09;7.90;;;3.78;;
84084;SDS011;74175;41.730;44.734;2024-02-14T14:07:36;9.00;;;3.80;;
84084;SDS011;74175;41.730;44.734;2024-02-14T14:10:03;11.90;;;4.25;;
84084;SDS011;74175;41.730;44.734;2024-02-14T14:12:31;9.87;;;3.83;;
84084;SDS011;74175;41.730;44.734;2024-02-14T14:14:57;9.63;;;3.95;;
84084;SDS011;74175;41.730;44.734;2024-02-14T14:17:24;11.77;;;3.90;;
84084;SDS011;74175;41.730;44.734;2024-02-14T14:19:50;8.70;;;3.95;;
84084;SDS011;74175;41.730;44.734;2024-02-14T14:22:16;7.45;;;3.20;;
84084;SDS011;74175;41.730;44.734;2024-02-14T14:24:42;9.53;;;3.57;;
84084;SDS011;74175;41.730;44.734;2024-02-14T14:27:08;5.63;;;2.67;;
84084;SDS011;74175;41.730;44.734;2024-02-14T14:29:39;10.90;;;3.92;;
84084;SDS011;74175;41.730;44.734;2024-02-14T14:32:20;7.20;;;3.40;;
84084;SDS011;74175;41.730;44.734;2024-02-14T14:34:47;21.80;;;9.20;;